Latest Coastal Weather Observations for Horn Island

IDQ60701

Issued at 7:25 pm EST Friday 25 April 2014 (issued every 10 minutes, with the page automatically refreshed every 10 minutes)

About coastal observations | Map of coastal stations | Coastal observations for QLD | Marine services | Other Formats
Station Details ID: 027058 Name: HORN ISLAND Lat: -10.58 Lon: 142.29 Height: 4.0 m
Data from the previous 72 hours. | See also: Recent months at Horn Island
Date/Time
EST
Temp

°C
Wind Pressure Rain
since 9am
mm
Weather Cloud Vis
km
Sea
Height
m
Swell
Dir
 
Speed
knots
Gust
knots
hPa Trend Height
m
Period
s
Dir
25/07:00pm 27.7 E 9 12 1009.2 - 0.0 - - 10 - - - -
25/06:30pm 27.8 E 11 15 1008.4 - 0.0 - - 10 - - - -
25/06:00pm 28.0 E 11 14 1008.2 - 0.0 - Mostly clear 10 - - - -
25/05:30pm 28.1 E 9 14 1007.9 - 0.0 - - 10 - - - -
25/05:00pm 28.7 E 12 15 1007.7 - 0.0 - Partly cloudy 10 - - - -
25/04:30pm 29.3 E 11 16 1007.6 - 0.0 - - 10 - - - -
25/04:00pm 29.8 E 11 16 1007.4 - 0.0 - - 10 - - - -
25/03:30pm 29.6 E 12 15 1007.2 - 0.0 - - 10 - - - -
25/03:00pm 29.9 ENE 11 14 1007.7 - 0.0 - Mostly clear 10 - - - -
25/02:30pm 30.1 ENE 10 14 1007.9 - 0.0 - Partly cloudy 10 - - - -
25/02:00pm 29.3 ENE 10 14 1008.0 - 0.0 - Partly cloudy 10 - - - -
25/01:30pm 29.3 ENE 10 15 1008.2 - 0.0 - Partly cloudy 10 - - - -
25/01:00pm 29.4 E 11 14 1008.4 - 0.0 - Partly cloudy 10 - - - -
25/12:30pm 29.3 E 11 15 1008.9 - 0.0 - Partly cloudy 10 - - - -
25/12:00pm 29.4 ENE 10 14 1009.7 - 0.0 - - 10 - - - -
25/11:30am 29.0 ENE 11 14 1010.3 - 0.0 - Partly cloudy 10 - - - -
25/11:01am 29.9 E 9 12 1010.7 - 0.0 - Partly cloudy 10 - - - -
25/11:00am 29.5 ENE 9 12 1010.7 - 0.0 - Partly cloudy 10 - - - -
25/10:30am 28.7 E 9 13 1010.6 - 0.0 - Partly cloudy 10 - - - -
25/10:00am 27.8 E 10 14 1010.6 - 0.0 - - 10 - - - -
25/09:30am 27.5 ENE 10 12 1010.7 - 0.0 - - 10 - - - -
25/09:00am 27.4 E 8 11 1010.6 - 0.0 - - 10 - - - -
25/08:30am 26.8 ESE 8 11 1010.1 - 0.0 - Partly cloudy 10 - - - -
25/08:00am 26.3 ESE 6 8 1010.1 - 0.0 - Partly cloudy 10 - - - -
25/07:30am 25.3 E 5 7 1009.9 - 0.0 - Partly cloudy 10 - - - -
25/07:00am 24.7 ESE 4 4 1009.5 - 0.0 - - 10 - - - -
25/06:30am 24.5 ESE 5 6 1009.1 - 0.0 - - 10 - - - -
25/06:00am 24.3 SE 4 5 1008.6 - 0.0 - - 10 - - - -
25/05:30am 24.6 SE 5 6 1008.4 - 0.0 - Partly cloudy 10 - - - -
25/05:00am 24.4 SSE 3 5 1008.3 - 0.0 - Partly cloudy 10 - - - -
25/04:30am 24.5 S 3 3 1008.1 - 0.0 - - 10 - - - -
25/04:00am 24.7 SSE 4 5 1007.9 - 0.0 - - 10 - - - -
25/03:30am 24.7 S 4 5 1008.0 - 0.0 - - 10 - - - -
25/03:00am 24.7 S 6 8 1008.3 - 0.0 - - 10 - - - -
25/02:30am 24.6 S 8 11 1008.6 - 0.0 - - 10 - - - -
25/02:00am 24.7 SSE 10 14 1008.8 - 0.0 - Partly cloudy 10 - - - -
25/01:30am 25.3 S 12 17 1009.5 - 0.0 - Partly cloudy 10 - - - -
25/01:00am 25.2 S 9 15 1009.7 - 0.0 - Partly cloudy 10 - - - -
25/12:30am 24.8 S 8 9 1010.5 - 0.0 - Partly cloudy 10 - - - -
25/12:00am 24.7 S 6 9 1010.8 - 0.0 - Cloudy 10 - - - -
 
Date/Time
EST
Temp

°C
Wind Pressure Rain
since 9am
mm
Weather Cloud Vis
km
Sea
Height
m
Swell
Dir
 
Speed
knots
Gust
knots
hPa Trend Height
m
Period
s
Dir
24/11:30pm 25.1 SSW 9 11 1010.8 - 0.0 - Partly cloudy 10 - - - -
24/11:00pm 25.8 SW 10 13 1010.7 - 0.0 - Partly cloudy 10 - - - -
24/10:30pm 26.8 S 5 6 1010.8 - 0.0 - Partly cloudy 10 - - - -
24/10:00pm 27.1 S 1 4 1010.8 - 0.0 - Partly cloudy 10 - - - -
24/09:30pm 27.3 ESE 6 9 1010.4 - 0.0 - Partly cloudy 10 - - - -
24/09:00pm 27.4 ESE 7 10 1009.8 - 0.0 - Mostly cloudy 10 - - - -
24/08:30pm 27.4 ESE 7 10 1009.6 - 0.0 - Partly cloudy 10 - - - -
24/08:00pm 27.5 E 9 11 1009.0 - 0.0 - Partly cloudy 10 - - - -
24/07:30pm 27.5 E 8 13 1008.7 - 0.0 - Partly cloudy 10 - - - -
24/07:00pm 27.4 E 6 8 1008.7 - 0.0 - Partly cloudy 10 - - - -
24/06:30pm 27.6 E 7 10 1008.2 - 0.0 - - 10 - - - -
24/06:00pm 28.0 E 7 10 1007.8 - 0.0 - - 10 - - - -
24/05:30pm 28.4 E 9 12 1007.6 - 0.0 - - 10 - - - -
24/05:00pm 28.8 E 9 12 1007.3 - 0.0 - - 10 - - - -
24/04:30pm 29.1 E 11 14 1007.2 - 0.0 - - 10 - - - -
24/04:00pm 29.1 E 10 15 1007.0 - 0.0 - Partly cloudy 10 - - - -
24/03:30pm 29.6 E 11 16 1006.8 - 0.0 - Partly cloudy 10 - - - -
24/03:00pm 29.5 ENE 11 14 1007.0 - 0.0 - Mostly clear 10 - - - -
24/02:30pm 29.5 E 11 15 1007.5 - 0.0 - Partly cloudy 10 - - - -
24/02:00pm 30.0 E 12 16 1007.5 - 0.0 - - 10 - - - -
24/01:30pm 29.8 ENE 11 15 1008.0 - 0.0 - Partly cloudy 10 - - - -
24/01:00pm 29.9 ENE 11 16 1008.3 - 0.0 - Partly cloudy 10 - - - -
24/12:30pm 29.8 E 12 15 1008.6 - 0.0 - Partly cloudy 10 - - - -
24/12:00pm 29.7 E 11 15 1009.1 - 0.0 - Cloudy 10 - - - -
24/11:30am 30.0 E 11 14 1009.5 - 0.0 - - 10 - - - -
24/11:00am 29.9 E 12 15 1009.8 - 0.0 - Partly cloudy 10 - - - -
24/10:30am 29.2 E 13 16 1010.0 - 0.0 - Partly cloudy 10 - - - -
24/10:00am 29.3 E 11 15 1010.1 - 0.0 - Partly cloudy 10 - - - -
24/09:30am 29.2 E 11 15 1010.0 - 0.0 - Partly cloudy 10 - - - -
24/09:00am 28.3 E 10 14 1009.9 - 0.0 - Cloudy 10 - - - -
24/08:30am 28.9 E 10 15 1009.6 - 0.0 - Partly cloudy 10 - - - -
24/08:00am 28.3 E 9 13 1009.5 - 0.0 - Partly cloudy 10 - - - -
24/07:30am 27.7 E 10 14 1009.2 - 0.0 - Partly cloudy 10 - - - -
24/07:00am 27.2 E 8 10 1008.7 - 0.0 - Partly cloudy 10 - - - -
24/06:30am 27.2 E 9 13 1008.4 - 0.0 - Partly cloudy 10 - - - -
24/06:00am 27.2 E 9 13 1008.3 - 0.0 - Cloudy 10 - - - -
24/05:30am 27.1 E 10 14 1008.0 - 0.0 - Partly cloudy 10 - - - -
24/05:00am 27.1 E 9 13 1007.9 - 0.0 - Partly cloudy 10 - - - -
24/04:30am 27.0 E 8 11 1008.0 - 0.0 - Partly cloudy 10 - - - -
24/04:00am 27.0 E 11 14 1007.9 - 0.0 - Partly cloudy 10 - - - -
24/03:30am 27.1 E 11 14 1007.8 - 0.0 - Partly cloudy 10 - - - -
24/03:00am 27.1 E 10 13 1007.9 - 0.0 - Mostly clear 10 - - - -
24/02:30am 27.2 E 11 16 1007.9 - 0.0 - - 10 - - - -
24/02:00am 27.2 E 10 14 1008.3 - 0.0 - Partly cloudy 10 - - - -
24/01:30am 27.1 E 10 13 1009.0 - 0.0 - Partly cloudy 10 - - - -
24/01:00am 27.2 ESE 11 13 1009.6 - 0.0 - Partly cloudy 10 - - - -
24/12:30am 27.2 ESE 10 13 1009.9 - 0.0 - Partly cloudy 10 - - - -
24/12:00am 27.2 ESE 8 11 1009.9 - 0.0 - Cloudy 10 - - - -
 
Date/Time
EST
Temp

°C
Wind Pressure Rain
since 9am
mm
Weather Cloud Vis
km
Sea
Height
m
Swell
Dir
 
Speed
knots
Gust
knots
hPa Trend Height
m
Period
s
Dir
23/11:30pm 27.2 E 9 13 1010.1 - 0.0 - Partly cloudy 10 - - - -
23/11:00pm 27.3 ESE 8 11 1010.3 - 0.0 - Partly cloudy 10 - - - -
23/10:30pm 27.3 ESE 10 13 1010.2 - 0.0 - Partly cloudy 10 - - - -
23/10:00pm 27.2 ESE 11 15 1010.1 - 0.0 - Partly cloudy 10 - - - -
23/09:30pm 27.2 E 9 14 1010.0 - 0.0 - Partly cloudy 10 - - - -
23/09:00pm 27.0 ESE 8 11 1009.8 - 0.0 - Mostly clear 10 - - - -
23/08:30pm 27.1 ESE 9 12 1009.8 - 0.0 - - 10 - - - -
23/08:00pm 27.2 ESE 10 15 1009.2 - 0.0 - - 10 - - - -
23/07:30pm 27.3 ESE 10 15 1008.8 - 0.0 - - 10 - - - -
23/07:00pm 27.4 ESE 11 17 1008.3 - 0.0 - - 10 - - - -
23/06:30pm 27.6 ESE 11 16 1008.3 - 0.0 - - 10 - - - -
23/06:00pm 27.9 ESE 10 13 1008.2 - 0.0 - - 10 - - - -
23/05:30pm 28.3 ESE 10 15 1007.6 - 0.0 - - 10 - - - -
23/05:00pm 28.9 ESE 12 17 1007.3 - 0.0 - - 10 - - - -
23/04:30pm 29.0 ESE 12 16 1007.3 - 0.0 - Partly cloudy 10 - - - -
23/04:00pm 29.2 E 12 15 1007.6 - 0.0 - - 10 - - - -
23/03:30pm 29.4 E 13 17 1007.7 - 0.0 - - 10 - - - -
23/03:00pm 29.8 ESE 13 17 1007.9 - 0.0 - - 10 - - - -
23/02:30pm 29.9 ESE 12 16 1008.3 - 0.0 - Partly cloudy 10 - - - -
23/02:00pm 29.6 E 13 17 1008.6 - 0.0 - Partly cloudy 10 - - - -
23/01:30pm 29.6 E 14 18 1008.9 - 0.0 - Partly cloudy 10 - - - -
23/01:00pm 29.8 E 13 17 1009.2 - 0.0 - Partly cloudy 10 - - - -
23/12:30pm 29.9 E 13 19 1009.7 - 0.0 - Partly cloudy 10 - - - -
23/12:00pm 29.6 E 14 18 1009.7 - 0.0 - Mostly clear 10 - - - -
23/11:30am 29.3 E 15 19 1009.8 - 0.0 - Partly cloudy 10 - - - -
23/11:00am 29.6 E 13 17 1010.1 - 0.0 - Partly cloudy 10 - - - -
23/10:30am 29.7 E 13 19 1010.5 - 0.0 - Partly cloudy 10 - - - -
23/10:00am 29.1 E 13 18 1010.6 - 0.0 - Partly cloudy 10 - - - -
23/09:30am 29.0 E 13 17 1010.8 - 0.0 - Partly cloudy 10 - - - -
23/09:00am 28.7 E 13 18 1010.6 - 1.2 - - 10 - - - -
23/08:30am 28.5 E 11 19 1010.7 - 1.2 - Partly cloudy 10 - - - -
23/08:00am 28.2 E 13 18 1010.3 - 1.2 - - 10 - - - -
23/07:30am 27.9 E 12 17 1010.2 - 1.2 - Partly cloudy 10 - - - -
23/07:00am 27.6 E 11 15 1010.0 - 1.2 - Partly cloudy 10 - - - -
23/06:30am 27.5 E 11 15 1009.4 - 1.2 - Partly cloudy 10 - - - -
23/06:00am 27.5 E 13 17 1009.0 - 1.2 - Cloudy 10 - - - -
23/05:30am 27.3 E 12 17 1008.7 - 1.2 - Partly cloudy 10 - - - -
23/05:00am 27.3 E 11 16 1008.6 - 1.2 - Partly cloudy 10 - - - -
23/04:30am 27.2 E 11 15 1008.6 - 1.2 - Partly cloudy 9 - - - -
23/04:09am 27.1 E 10 15 1008.5 - 1.2 - Partly cloudy 10 - - - -
23/04:00am 27.2 E 11 17 1008.5 - 1.2 - Partly cloudy 10 - - - -
23/03:37am 27.2 E 9 13 1008.2 - 1.2 - Partly cloudy 9 - - - -
23/03:30am 27.2 E 11 14 1008.2 - 1.2 - Partly cloudy 10 - - - -
23/03:26am 27.2 E 12 17 1008.2 - 1.2 - Partly cloudy 10 - - - -
23/03:00am 27.3 E 12 16 1008.1 - 1.2 - Cloudy 9 - - - -
23/02:30am 27.2 E 13 19 1008.3 - 1.0 - Partly cloudy 10 - - - -
23/02:18am 27.1 E 12 16 1008.3 - 1.0 - Partly cloudy 9 - - - -
23/02:12am 27.0 E 11 16 1008.4 - 1.0 - Partly cloudy 9 - - - -
23/02:07am 27.0 E 11 16 1008.5 - 1.0 - Partly cloudy 9 - - - -
23/02:00am 26.9 E 12 16 1008.6 - 1.0 - Partly cloudy 7 - - - -
23/01:47am 26.9 E 12 19 1008.8 - 0.6 - Partly cloudy 5 - - - -
23/01:30am 27.7 E 10 13 1009.1 - 0.2 - Partly cloudy 9 - - - -
23/01:00am 27.8 E 11 17 1009.5 - 0.2 - Partly cloudy 10 - - - -
23/12:35am 27.8 E 11 17 1009.6 - 0.2 - Partly cloudy 10 - - - -
23/12:30am 27.8 E 13 17 1009.6 - 0.2 - Partly cloudy 10 - - - -
23/12:29am 27.8 E 12 16 1009.6 - 0.2 - Partly cloudy 10 - - - -
23/12:16am 27.8 E 12 17 1010.0 - 0.2 - Partly cloudy 10 - - - -
23/12:10am 27.9 E 14 18 1010.0 - 0.2 - Partly cloudy 10 - - - -
23/12:00am 27.9 E 14 21 1010.1 - 0.2 - Cloudy 10 - - - -
 
Date/Time
EST
Temp

°C
Wind Pressure Rain
since 9am
mm
Weather Cloud Vis
km
Sea
Height
m
Swell
Dir
 
Speed
knots
Gust
knots
hPa Trend Height
m
Period
s
Dir
22/11:47pm 27.9 E 13 18 1010.2 - 0.2 - Partly cloudy 10 - - - -
22/11:44pm 27.8 E 12 18 1010.2 - 0.2 - Partly cloudy 10 - - - -
22/11:30pm 27.8 E 12 16 1010.3 - 0.2 - Partly cloudy 9 - - - -
22/11:00pm 27.8 E 13 20 1010.4 - 0.2 - Partly cloudy 10 - - - -
22/10:30pm 27.8 ESE 14 20 1010.5 - 0.2 - Partly cloudy 10 - - - -
22/10:00pm 27.8 E 11 15 1010.7 - 0.2 - Partly cloudy 10 - - - -
22/09:30pm 27.9 ESE 16 21 1010.6 - 0.2 - Partly cloudy 10 - - - -
22/09:01pm 27.9 E 13 20 1010.3 - 0.2 - Partly cloudy 9 - - - -
22/09:00pm 28.0 E 13 20 1010.3 - 0.2 - Cloudy 9 - - - -
22/08:52pm 27.9 E 14 21 1010.2 - 0.2 - Partly cloudy 9 - - - -
22/08:30pm 27.9 ESE 15 22 1010.0 - 0.2 - Partly cloudy 9 - - - -
22/08:00pm 27.9 E 13 17 1009.8 - 0.2 - Partly cloudy 10 - - - -
22/07:30pm 27.8 ESE 13 17 1009.5 - 0.2 - Partly cloudy 8 - - - -

Other Formats:

Comma delimited format used in spreadsheet applications
http://www.bom.gov.au/fwo/IDQ60701/IDQ60701.94174.axf

JavaScript Object Notation format (JSON) in row-major order
http://www.bom.gov.au/fwo/IDQ60701/IDQ60701.94174.json